Hardyville, Kentucky
Current Conditions -  °F | °C
As of 11:30 PM on Wednesday 26 Nov 2014 (Local Time) from KBWG Reporting Station
Haze Haze  
Wind Chill: 37°   Ceiling: 1200
Heat Index: 37°   Visibility: 3mi
Dew Point: 34°   Wind: 0mph
Humidity: 89%   Direction: NA
Pressure: 30.05"   Gusts: NA
Location:  37.25°N, 85.79°W
Report Text: KBWG 270530Z AUTO 00000KT 3SM BR FEW007 OVC012 03/01 A3005 RMK AO2 UPE28RAB01E26 P0001 T00280011
Loading
Personal Weather Stations






























Interactive Weather Map New forecast layout! Learn more

10-Day Weather Forecast

Advertisements
Track Severe Weather on mobile